Time;durP1;ratioP1;P1;durP2;ratioP2;P2;SDS_P1;SDS_P2;PMS_P1;PMS_P2;Temp;Humidity;BMP_temperature;BMP_pressure;BME280_temperature;BME280_humidity;BME280_pressure;Samples;Min_cycle;Max_cycle;Signal;HPM_P1;HPM_P2
2021/09/17 00:00:28;;;;;;;;;;;;;;;;;;2108758;28;1241;-87
2021/09/17 00:01:31;;;;;;;;;;;;;;;;;;2099575;28;1425;-86
2021/09/17 00:02:34;;;;;;;;;;;;;;;;;;2091853;28;1253;-87
2021/09/17 00:03:35;;;;;;;;;;;;;;;;;;2091887;28;1370;-86
2021/09/17 00:04:37;;;;;;;;;;;;;;;;;;2099871;28;1315;-86
2021/09/17 00:05:37;;;;;;;;;;;;;;;;;;2100159;28;1338;-87
2021/09/17 00:06:39;;;;;;;;;;;;;;;;;;2084272;28;1453;-87
2021/09/17 00:07:40;;;;;;;;;;;;;;;;;;2084181;28;1149;-87
2021/09/17 00:08:42;;;;;;;;;;;;;;;;;;2083466;28;1209;-86
2021/09/17 00:09:46;;;;;;;;;;;;;;;;;;2100188;28;1914;-86
2021/09/17 00:10:48;;;;;;;;;;;;;;;;;;2091384;28;1309;-87
2021/09/17 00:11:50;;;;;;;;;;;;;;;;;;2091857;28;1322;-86
2021/09/17 00:12:54;;;;;;;;;;;;;;;;;;2092135;28;1315;-86
2021/09/17 00:13:55;;;;;;;;;;;;;;;;;;2083474;28;1223;-86
2021/09/17 00:14:57;;;;;;;;;;;;;;;;;;2089302;28;1215;-85
2021/09/17 00:15:57;;;;;;;;;;;;;;;;;;2099781;28;1343;-85
2021/09/17 00:17:00;;;;;;;;;;;;;;;;;;2108852;28;1233;-85
2021/09/17 00:18:03;;;;;;;;;;;;;;;;;;2108735;28;1385;-86
2021/09/17 00:19:05;;;;;;;;;;;;;;;;;;2108587;28;1218;-85
2021/09/17 00:20:07;;;;;;;;;;;;;;;;;;2099681;28;1298;-86
2021/09/17 00:21:09;;;;;;;;;;;;;;;;;;2100156;28;1403;-86
2021/09/17 00:22:09;;;;;;;;;;;;;;;;;;2091869;28;1239;-86
2021/09/17 00:23:11;;;;;;;;;;;;;;;;;;2102721;28;1558;-85
2021/09/17 00:24:12;;;;;;;;;;;;;;;;;;2091600;28;1250;-86
2021/09/17 00:25:14;;;;;;;;;;;;;;;;;;2108429;28;1202;-85
2021/09/17 00:26:15;;;;;;;;;;;;;;;;;;2099958;28;1261;-85
2021/09/17 00:27:18;;;;;;;;;;;;;;;;;;2083113;28;1208;-85
2021/09/17 00:28:19;;;;;;;;;;;;;;;;;;2091968;28;1267;-85
2021/09/17 00:29:22;;;;;;;;;;;;;;;;;;2099992;28;1218;-85
2021/09/17 00:30:27;;;;;;;;;;;;;;;;;;2107179;28;1913;-85
2021/09/17 00:31:28;;;;;;;;;;;;;;;;;;2107903;28;1360;-85
2021/09/17 00:32:31;;;;;;;;;;;;;;;;;;2091738;28;1330;-85
2021/09/17 00:33:34;;;;;;;;;;;;;;;;;;2100182;28;907;-86
2021/09/17 00:34:36;;;;;;;;;;;;;;;;;;2099612;28;1246;-85
2021/09/17 00:35:37;;;;;;;;;;;;;;;;;;2091204;28;1196;-85
2021/09/17 00:36:39;;;;;;;;;;;;;;;;;;2108532;28;1339;-85
2021/09/17 00:37:40;;;;;;;;;;;;;;;;;;2107692;28;1421;-85
2021/09/17 00:38:42;;;;;;;;;;;;;;;;;;2108408;28;1365;-85
2021/09/17 00:39:42;;;;;;;;;;;;;;;;;;2107964;28;1315;-85
2021/09/17 00:40:44;;;;;;;;;;;;;;;;;;2091688;28;1377;-85
2021/09/17 00:41:45;;;;;;;;;;;;;;;;;;2099606;28;1380;-85
2021/09/17 00:42:47;;;;;;;;;;;;;;;;;;2108610;28;1246;-86
2021/09/17 00:43:48;;;;;;;;;;;;;;;;;;2107939;28;1310;-86
2021/09/17 00:44:51;;;;;;;;;;;;;;;;;;2111181;28;1281;-86
2021/09/17 00:45:53;;;;;;;;;;;;;;;;;;2099318;28;1216;-86
2021/09/17 00:46:54;;;;;;;;;;;;;;;;;;2100128;28;1364;-86
2021/09/17 00:47:56;;;;;;;;;;;;;;;;;;2091734;28;1385;-86
2021/09/17 00:48:58;;;;;;;;;;;;;;;;;;2083588;28;1268;-86
2021/09/17 00:50:00;;;;;;;;;;;;;;;;;;2091091;28;1909;-86
2021/09/17 00:51:02;;;;;;;;;;;;;;;;;;2100270;28;1292;-85
2021/09/17 00:52:03;;;;;;;;;;;;;;;;;;2107670;28;1321;-86
2021/09/17 00:53:06;;;;;;;;;;;;;;;;;;2099658;28;1330;-86
2021/09/17 00:54:07;;;;;;;;;;;;;;;;;;2083018;28;2049;-85
2021/09/17 00:55:09;;;;;;;;;;;;;;;;;;2083525;28;1361;-86
2021/09/17 00:56:10;;;;;;;;;;;;;;;;;;2083438;28;1242;-86
2021/09/17 00:57:12;;;;;;;;;;;;;;;;;;2091701;28;1326;-86
2021/09/17 00:58:13;;;;;;;;;;;;;;;;;;2091543;28;1319;-86
2021/09/17 00:59:17;;;;;;;;;;;;;;;;;;2083093;28;1313;-86
2021/09/17 01:00:18;;;;;;;;;;;;;;;;;;2103673;28;1226;-86
2021/09/17 01:01:20;;;;;;;;;;;;;;;;;;2108183;28;1481;-86
2021/09/17 01:02:21;;;;;;;;;;;;;;;;;;2083026;28;1365;-86
2021/09/17 01:03:23;;;;;;;;;;;;;;;;;;2099818;28;1330;-86
2021/09/17 01:04:26;;;;;;;;;;;;;;;;;;2099749;28;1474;-86
2021/09/17 01:05:27;;;;;;;;;;;;;;;;;;2091318;28;1341;-86
2021/09/17 01:06:29;;;;;;;;;;;;;;;;;;2108004;28;1218;-86
2021/09/17 01:07:31;;;;;;;;;;;;;;;;;;2116522;28;1278;-87
2021/09/17 01:08:32;;;;;;;;;;;;;;;;;;2099923;28;1271;-86
2021/09/17 01:09:35;;;;;;;;;;;;;;;;;;2099971;28;1364;-87
2021/09/17 01:10:36;;;;;;;;;;;;;;;;;;2107500;28;1971;-86
2021/09/17 01:11:38;;;;;;;;;;;;;;;;;;2108040;28;1354;-87
2021/09/17 01:12:40;;;;;;;;;;;;;;;;;;2108035;28;1467;-87
2021/09/17 01:13:44;;;;;;;;;;;;;;;;;;2108205;28;1439;-86
2021/09/17 01:14:46;;;;;;;;;;;;;;;;;;2107447;28;1435;-86
2021/09/17 01:15:51;;;;;;;;;;;;;;;;;;2108106;28;1258;-87
2021/09/17 01:16:52;;;;;;;;;;;;;;;;;;2116247;28;1326;-86
2021/09/17 01:17:54;;;;;;;;;;;;;;;;;;2107769;28;1336;-86
2021/09/17 01:18:55;;;;;;;;;;;;;;;;;;2108441;28;1365;-86
2021/09/17 01:19:59;;;;;;;;;;;;;;;;;;2109623;28;925;-87
2021/09/17 01:21:03;;;;;;;;;;;;;;;;;;2099431;28;1350;-87
2021/09/17 01:22:05;;;;;;;;;;;;;;;;;;2099195;28;1439;-86
2021/09/17 01:23:10;;;;;;;;;;;;;;;;;;2108026;28;1378;-87
2021/09/17 01:24:11;;;;;;;;;;;;;;;;;;2107814;28;1241;-87
2021/09/17 01:25:15;;;;;;;;;;;;;;;;;;2103040;28;1342;-85
2021/09/17 01:26:16;;;;;;;;;;;;;;;;;;2091310;28;1242;-86
2021/09/17 01:27:18;;;;;;;;;;;;;;;;;;2091366;28;1303;-86
2021/09/17 01:28:20;;;;;;;;;;;;;;;;;;2091086;28;1195;-86
2021/09/17 01:29:23;;;;;;;;;;;;;;;;;;2093416;28;1409;-86
2021/09/17 01:30:24;;;;;;;;;;;;;;;;;;2107749;28;2008;-86
2021/09/17 01:31:26;;;;;;;;;;;;;;;;;;2108006;28;1221;-87
2021/09/17 01:32:26;;;;;;;;;;;;;;;;;;2107765;28;1219;-87
2021/09/17 01:33:28;;;;;;;;;;;;;;;;;;2108149;28;1337;-86
2021/09/17 01:34:29;;;;;;;;;;;;;;;;;;2108075;28;1230;-86
2021/09/17 01:35:33;;;;;;;;;;;;;;;;;;2107996;28;1312;-85
2021/09/17 01:36:35;;;;;;;;;;;;;;;;;;2091410;28;1245;-85
2021/09/17 01:37:37;;;;;;;;;;;;;;;;;;2099679;28;1309;-85
2021/09/17 01:38:39;;;;;;;;;;;;;;;;;;2100081;28;1219;-85
2021/09/17 01:39:41;;;;;;;;;;;;;;;;;;2099161;28;1232;-86
2021/09/17 01:40:41;;;;;;;;;;;;;;;;;;2107570;28;1389;-85
2021/09/17 01:41:43;;;;;;;;;;;;;;;;;;2098661;28;1433;-85
2021/09/17 01:42:45;;;;;;;;;;;;;;;;;;2090554;28;1367;-85
2021/09/17 01:43:47;;;;;;;;;;;;;;;;;;2099183;28;1363;-85
2021/09/17 01:44:48;;;;;;;;;;;;;;;;;;2093848;28;1326;-86
2021/09/17 01:45:50;;;;;;;;;;;;;;;;;;2107945;28;1325;-85
2021/09/17 01:46:51;;;;;;;;;;;;;;;;;;2116146;28;1349;-85
2021/09/17 01:47:53;;;;;;;;;;;;;;;;;;2107694;28;1241;-84
2021/09/17 01:48:54;;;;;;;;;;;;;;;;;;2083662;28;1362;-85
2021/09/17 01:49:56;;;;;;;;;;;;;;;;;;2090138;28;1907;-85
2021/09/17 01:50:57;;;;;;;;;;;;;;;;;;2108043;28;2253;-85
2021/09/17 01:52:02;;;;;;;;;;;;;;;;;;2107914;28;1271;-84
2021/09/17 01:53:02;;;;;;;;;;;;;;;;;;2116464;28;1222;-85
2021/09/17 01:54:08;;;;;;;;;;;;;;;;;;2107138;28;1597;-84
2021/09/17 01:55:10;;;;;;;;;;;;;;;;;;2102118;28;1473;-84
2021/09/17 01:56:13;;;;;;;;;;;;;;;;;;2098840;28;1317;-84
2021/09/17 01:57:16;;;;;;;;;;;;;;;;;;2099735;28;1227;-85
2021/09/17 01:58:17;;;;;;;;;;;;;;;;;;2107161;28;1095;-85
2021/09/17 01:59:19;;;;;;;;;;;;;;;;;;2091018;28;1221;-85
2021/09/17 02:00:20;;;;;;;;;;;;;;;;;;2090728;28;1195;-85
2021/09/17 02:01:22;;;;;;;;;;;;;;;;;;2099255;28;1101;-84
2021/09/17 02:02:23;;;;;;;;;;;;;;;;;;2090669;28;1187;-84
2021/09/17 02:03:25;;;;;;;;;;;;;;;;;;2098960;28;1502;-85
2021/09/17 02:04:26;;;;;;;;;;;;;;;;;;2107338;28;1528;-84
2021/09/17 02:05:28;;;;;;;;;;;;;;;;;;2082858;28;1199;-85
2021/09/17 02:06:30;;;;;;;;;;;;;;;;;;2083339;28;1196;-85
2021/09/17 02:07:32;;;;;;;;;;;;;;;;;;2091159;28;1389;-85
2021/09/17 02:08:34;;;;;;;;;;;;;;;;;;2083170;28;1240;-85
2021/09/17 02:09:36;;;;;;;;;;;;;;;;;;2094976;28;1916;-85
2021/09/17 02:10:38;;;;;;;;;;;;;;;;;;2109541;28;1921;-85
2021/09/17 02:11:40;;;;;;;;;;;;;;;;;;2099358;28;1353;-85
2021/09/17 02:12:42;;;;;;;;;;;;;;;;;;2099544;28;1226;-84
2021/09/17 02:13:43;;;;;;;;;;;;;;;;;;2099298;28;1199;-85
2021/09/17 02:14:44;;;;;;;;;;;;;;;;;;2103740;28;1214;-84
2021/09/17 02:15:45;;;;;;;;;;;;;;;;;;2115936;28;1341;-84
2021/09/17 02:16:47;;;;;;;;;;;;;;;;;;2098995;28;1247;-84
2021/09/17 02:17:48;;;;;;;;;;;;;;;;;;2091028;28;1411;-84
2021/09/17 02:18:50;;;;;;;;;;;;;;;;;;2099656;28;1222;-84
2021/09/17 02:19:51;;;;;;;;;;;;;;;;;;2100912;28;1880;-85
2021/09/17 02:20:53;;;;;;;;;;;;;;;;;;2099426;28;1337;-85
2021/09/17 02:21:55;;;;;;;;;;;;;;;;;;2099656;28;1309;-85
2021/09/17 02:22:58;;;;;;;;;;;;;;;;;;2107898;28;1387;-85
2021/09/17 02:23:59;;;;;;;;;;;;;;;;;;2098999;28;1322;-85
2021/09/17 02:25:01;;;;;;;;;;;;;;;;;;2097797;28;1945;-84
2021/09/17 02:26:02;;;;;;;;;;;;;;;;;;2090705;28;1376;-84
2021/09/17 02:27:04;;;;;;;;;;;;;;;;;;2090771;28;1308;-84
2021/09/17 02:28:05;;;;;;;;;;;;;;;;;;2107567;28;1317;-86
2021/09/17 02:29:08;;;;;;;;;;;;;;;;;;2099568;28;1468;-86
2021/09/17 02:30:10;;;;;;;;;;;;;;;;;;2082866;28;2035;-86
2021/09/17 02:31:12;;;;;;;;;;;;;;;;;;2082636;28;1922;-87
2021/09/17 02:32:13;;;;;;;;;;;;;;;;;;2099502;28;1211;-87
2021/09/17 02:33:15;;;;;;;;;;;;;;;;;;2107843;28;1215;-86
2021/09/17 02:34:16;;;;;;;;;;;;;;;;;;2098725;28;1309;-84
2021/09/17 02:35:18;;;;;;;;;;;;;;;;;;2091076;28;1439;-84
2021/09/17 02:36:18;;;;;;;;;;;;;;;;;;2082564;28;1298;-84
2021/09/17 02:37:20;;;;;;;;;;;;;;;;;;2082810;28;1244;-85
2021/09/17 02:38:23;;;;;;;;;;;;;;;;;;2091167;28;1413;-85
2021/09/17 02:39:24;;;;;;;;;;;;;;;;;;2099236;28;1207;-86
2021/09/17 02:40:25;;;;;;;;;;;;;;;;;;2091162;28;1277;-85
2021/09/17 02:41:27;;;;;;;;;;;;;;;;;;2082505;28;1201;-85
2021/09/17 02:42:28;;;;;;;;;;;;;;;;;;2082614;28;1533;-85
2021/09/17 02:43:31;;;;;;;;;;;;;;;;;;2082220;28;1197;-85
2021/09/17 02:44:32;;;;;;;;;;;;;;;;;;2090897;28;1208;-85
2021/09/17 02:45:33;;;;;;;;;;;;;;;;;;2096738;28;1655;-85
2021/09/17 02:46:35;;;;;;;;;;;;;;;;;;2091249;28;1240;-85
2021/09/17 02:47:40;;;;;;;;;;;;;;;;;;2107879;28;1284;-85
2021/09/17 02:48:44;;;;;;;;;;;;;;;;;;2108261;28;1210;-85
2021/09/17 02:49:46;;;;;;;;;;;;;;;;;;2091383;28;1523;-85
2021/09/17 02:50:46;;;;;;;;;;;;;;;;;;2090916;28;1906;-85
2021/09/17 02:51:50;;;;;;;;;;;;;;;;;;2098927;28;1330;-85
2021/09/17 02:52:51;;;;;;;;;;;;;;;;;;2099348;28;1335;-85
2021/09/17 02:53:55;;;;;;;;;;;;;;;;;;2100822;28;1325;-85
2021/09/17 02:54:56;;;;;;;;;;;;;;;;;;2109037;28;1205;-85
2021/09/17 02:55:57;;;;;;;;;;;;;;;;;;2092190;28;1439;-85
2021/09/17 02:56:58;;;;;;;;;;;;;;;;;;2100852;28;1324;-85
2021/09/17 02:58:03;;;;;;;;;;;;;;;;;;2108615;28;886;-85
2021/09/17 02:59:04;;;;;;;;;;;;;;;;;;2108958;28;1366;-85
2021/09/17 03:00:07;;;;;;;;;;;;;;;;;;2092426;28;1231;-85
2021/09/17 03:01:08;;;;;;;;;;;;;;;;;;2092558;28;1222;-85
2021/09/17 03:02:10;;;;;;;;;;;;;;;;;;2092422;28;1255;-85
2021/09/17 03:03:10;;;;;;;;;;;;;;;;;;2084842;28;1227;-85
2021/09/17 03:04:15;;;;;;;;;;;;;;;;;;2083878;28;1319;-85
2021/09/17 03:05:15;;;;;;;;;;;;;;;;;;2084161;28;1424;-85
2021/09/17 03:06:18;;;;;;;;;;;;;;;;;;2092182;28;1263;-86
2021/09/17 03:07:18;;;;;;;;;;;;;;;;;;2092618;28;1365;-86
2021/09/17 03:08:20;;;;;;;;;;;;;;;;;;2092293;28;1373;-86
2021/09/17 03:09:23;;;;;;;;;;;;;;;;;;2100420;28;1364;-87
2021/09/17 03:10:24;;;;;;;;;;;;;;;;;;2100697;28;813;-86
2021/09/17 03:11:25;;;;;;;;;;;;;;;;;;2108675;28;1897;-86
2021/09/17 03:12:27;;;;;;;;;;;;;;;;;;2100893;28;1222;-86
2021/09/17 03:13:30;;;;;;;;;;;;;;;;;;2092202;28;1253;-86
2021/09/17 03:14:32;;;;;;;;;;;;;;;;;;2091971;28;1185;-86
2021/09/17 03:15:33;;;;;;;;;;;;;;;;;;2101057;28;1250;-86
2021/09/17 03:16:35;;;;;;;;;;;;;;;;;;2109467;28;1230;-86
2021/09/17 03:17:36;;;;;;;;;;;;;;;;;;2109193;28;1249;-86
2021/09/17 03:18:38;;;;;;;;;;;;;;;;;;2109137;28;1335;-86
2021/09/17 03:19:39;;;;;;;;;;;;;;;;;;2105047;28;917;-86
2021/09/17 03:20:42;;;;;;;;;;;;;;;;;;2108596;28;1353;-86
2021/09/17 03:21:43;;;;;;;;;;;;;;;;;;2108484;28;1333;-86
2021/09/17 03:22:45;;;;;;;;;;;;;;;;;;2099814;28;1349;-86
2021/09/17 03:23:45;;;;;;;;;;;;;;;;;;2100381;28;1305;-86
2021/09/17 03:24:49;;;;;;;;;;;;;;;;;;2108786;28;1357;-86
2021/09/17 03:25:51;;;;;;;;;;;;;;;;;;2100633;28;1183;-85
2021/09/17 03:26:52;;;;;;;;;;;;;;;;;;2100936;28;812;-86
2021/09/17 03:27:53;;;;;;;;;;;;;;;;;;2100574;28;1239;-86
2021/09/17 03:28:54;;;;;;;;;;;;;;;;;;2100458;28;1289;-85
2021/09/17 03:29:56;;;;;;;;;;;;;;;;;;2101555;28;1340;-86
2021/09/17 03:30:57;;;;;;;;;;;;;;;;;;2084247;28;1976;-86
2021/09/17 03:32:00;;;;;;;;;;;;;;;;;;2084226;28;1383;-86
2021/09/17 03:33:03;;;;;;;;;;;;;;;;;;2100701;28;1107;-86
2021/09/17 03:34:06;;;;;;;;;;;;;;;;;;2100685;28;1413;-86
2021/09/17 03:35:07;;;;;;;;;;;;;;;;;;2106091;28;1426;-86
2021/09/17 03:36:09;;;;;;;;;;;;;;;;;;2100540;28;1231;-86
2021/09/17 03:37:10;;;;;;;;;;;;;;;;;;2100372;28;1176;-86
2021/09/17 03:38:13;;;;;;;;;;;;;;;;;;2108625;28;1227;-86
2021/09/17 03:39:14;;;;;;;;;;;;;;;;;;2108275;28;1250;-87
2021/09/17 03:40:19;;;;;;;;;;;;;;;;;;2092356;28;1324;-91
2021/09/17 03:41:20;;;;;;;;;;;;;;;;;;2092324;28;1293;-91
2021/09/17 03:42:22;;;;;;;;;;;;;;;;;;2100016;28;1208;-92
2021/09/17 03:43:24;;;;;;;;;;;;;;;;;;2100300;28;1286;-93
2021/09/17 03:44:32;;;;;;;;;;;;;;;;;;2092389;28;1259;-92
2021/09/17 03:45:34;;;;;;;;;;;;;;;;;;2093022;28;1279;-90
2021/09/17 03:46:36;;;;;;;;;;;;;;;;;;2108910;28;1219;-90
2021/09/17 03:47:40;;;;;;;;;;;;;;;;;;2108687;28;1186;-92
2021/09/17 03:48:43;;;;;;;;;;;;;;;;;;2100173;28;1355;-92
2021/09/17 03:49:48;;;;;;;;;;;;;;;;;;2100314;28;1347;-92
2021/09/17 03:50:50;;;;;;;;;;;;;;;;;;2092074;28;2101;-92
2021/09/17 03:51:54;;;;;;;;;;;;;;;;;;2084440;28;1169;-91
2021/09/17 03:52:57;;;;;;;;;;;;;;;;;;2084151;28;1234;-89
2021/09/17 03:53:58;;;;;;;;;;;;;;;;;;2108863;28;1198;-88
2021/09/17 03:55:00;;;;;;;;;;;;;;;;;;2108112;28;1375;-89
2021/09/17 03:56:03;;;;;;;;;;;;;;;;;;2091687;28;1274;-89
2021/09/17 03:57:05;;;;;;;;;;;;;;;;;;2092481;28;1359;-89
2021/09/17 03:58:06;;;;;;;;;;;;;;;;;;2087554;28;1367;-90
2021/09/17 03:59:08;;;;;;;;;;;;;;;;;;2091975;28;1978;-89
2021/09/17 04:00:10;;;;;;;;;;;;;;;;;;2101046;28;1383;-90
2021/09/17 04:01:15;;;;;;;;;;;;;;;;;;2108525;28;1226;-89
2021/09/17 04:02:15;;;;;;;;;;;;;;;;;;2100579;28;1341;-89
2021/09/17 04:03:17;;;;;;;;;;;;;;;;;;2100076;28;1367;-89
2021/09/17 04:04:27;;;;;;;;;;;;;;;;;;2100086;28;1337;-89
2021/09/17 04:06:48;;;;;;;;;;;;;;;;;;2087315;28;1315;-89
2021/09/17 04:07:49;;;;;;;;;;;;;;;;;;2100504;28;884;-90
2021/09/17 04:08:50;;;;;;;;;;;;;;;;;;2091782;28;1205;-90
2021/09/17 04:09:54;;;;;;;;;;;;;;;;;;2089803;28;2052;-90
2021/09/17 04:10:56;;;;;;;;;;;;;;;;;;2083844;28;1972;-90
2021/09/17 04:11:58;;;;;;;;;;;;;;;;;;2084019;28;1326;-91
2021/09/17 04:13:00;;;;;;;;;;;;;;;;;;2100035;28;1405;-91
2021/09/17 04:14:01;;;;;;;;;;;;;;;;;;2100332;28;1286;-91
2021/09/17 04:15:03;;;;;;;;;;;;;;;;;;2090907;28;1849;-91
2021/09/17 04:16:06;;;;;;;;;;;;;;;;;;2091912;28;1310;-90
2021/09/17 04:17:09;;;;;;;;;;;;;;;;;;2095412;28;1365;-91
2021/09/17 04:18:09;;;;;;;;;;;;;;;;;;2083029;28;1269;-91
2021/09/17 04:19:13;;;;;;;;;;;;;;;;;;2084692;28;2126;-90
2021/09/17 04:20:14;;;;;;;;;;;;;;;;;;2083591;28;1235;-90
2021/09/17 04:21:15;;;;;;;;;;;;;;;;;;2075791;28;1383;-89
2021/09/17 04:22:16;;;;;;;;;;;;;;;;;;2096007;28;1243;-90
2021/09/17 04:23:18;;;;;;;;;;;;;;;;;;2102692;28;1441;-89
2021/09/17 04:24:19;;;;;;;;;;;;;;;;;;2103995;28;2010;-87
2021/09/17 04:25:21;;;;;;;;;;;;;;;;;;2084783;28;1877;-91
2021/09/17 04:26:24;;;;;;;;;;;;;;;;;;2094948;28;1535;-88
2021/09/17 04:27:29;;;;;;;;;;;;;;;;;;2089123;28;1347;-89
2021/09/17 04:28:30;;;;;;;;;;;;;;;;;;2087824;28;1407;-89
2021/09/17 04:29:32;;;;;;;;;;;;;;;;;;2085261;28;1787;-89
2021/09/17 04:30:34;;;;;;;;;;;;;;;;;;2092692;28;1366;-93
2021/09/17 04:31:36;;;;;;;;;;;;;;;;;;2108470;28;1910;-89
2021/09/17 04:32:37;;;;;;;;;;;;;;;;;;2099697;28;1390;-89
2021/09/17 04:33:38;;;;;;;;;;;;;;;;;;2099589;28;1258;-89
2021/09/17 04:34:39;;;;;;;;;;;;;;;;;;2099560;28;1284;-88
2021/09/17 04:35:42;;;;;;;;;;;;;;;;;;2083338;28;1406;-89
2021/09/17 04:36:43;;;;;;;;;;;;;;;;;;2083507;28;1548;-88
2021/09/17 04:37:45;;;;;;;;;;;;;;;;;;2100356;28;1219;-88
2021/09/17 04:38:46;;;;;;;;;;;;;;;;;;2099864;28;1278;-85
2021/09/17 04:39:51;;;;;;;;;;;;;;;;;;2099576;28;1685;-85
2021/09/17 04:40:54;;;;;;;;;;;;;;;;;;2099382;28;1367;-87
2021/09/17 04:41:58;;;;;;;;;;;;;;;;;;2104848;28;1354;-87
2021/09/17 04:43:02;;;;;;;;;;;;;;;;;;2091408;28;1319;-86
2021/09/17 04:44:03;;;;;;;;;;;;;;;;;;2091640;28;1378;-86
2021/09/17 04:45:05;;;;;;;;;;;;;;;;;;2099103;28;1942;-86
2021/09/17 04:46:07;;;;;;;;;;;;;;;;;;2091646;28;1371;-87
2021/09/17 04:47:08;;;;;;;;;;;;;;;;;;2108285;28;1308;-86
2021/09/17 04:48:10;;;;;;;;;;;;;;;;;;2099780;28;1320;-87
2021/09/17 04:49:11;;;;;;;;;;;;;;;;;;2091291;28;2027;-86
2021/09/17 04:50:13;;;;;;;;;;;;;;;;;;2094741;28;2111;-87
2021/09/17 04:51:14;;;;;;;;;;;;;;;;;;2083408;28;1984;-87
2021/09/17 04:52:21;;;;;;;;;;;;;;;;;;2091467;28;1224;-86
2021/09/17 04:53:24;;;;;;;;;;;;;;;;;;2083406;28;1280;-86
2021/09/17 04:54:25;;;;;;;;;;;;;;;;;;2083545;28;1231;-86
2021/09/17 04:55:27;;;;;;;;;;;;;;;;;;2087741;28;2049;-84
2021/09/17 04:56:30;;;;;;;;;;;;;;;;;;2091789;28;1379;-85
2021/09/17 04:57:30;;;;;;;;;;;;;;;;;;2099671;28;1356;-86
2021/09/17 04:58:34;;;;;;;;;;;;;;;;;;2099484;28;1235;-86
2021/09/17 04:59:37;;;;;;;;;;;;;;;;;;2090927;28;1271;-87
2021/09/17 05:00:39;;;;;;;;;;;;;;;;;;2092166;28;1206;-87
2021/09/17 05:01:40;;;;;;;;;;;;;;;;;;2108425;28;1356;-86
2021/09/17 05:02:42;;;;;;;;;;;;;;;;;;2099543;28;1499;-86
2021/09/17 05:03:43;;;;;;;;;;;;;;;;;;2083030;28;1400;-86
2021/09/17 05:04:45;;;;;;;;;;;;;;;;;;2096532;28;1252;-86
2021/09/17 05:05:46;;;;;;;;;;;;;;;;;;2099629;28;2072;-87
2021/09/17 05:06:48;;;;;;;;;;;;;;;;;;2091272;28;1239;-88
2021/09/17 05:07:48;;;;;;;;;;;;;;;;;;2099423;28;1444;-87
2021/09/17 05:08:52;;;;;;;;;;;;;;;;;;2099353;28;1213;-86
2021/09/17 05:09:52;;;;;;;;;;;;;;;;;;2091715;28;1309;-86
2021/09/17 05:12:13;;;;;;;;;;;;;;;;;;2097849;28;1290;-86
2021/09/17 05:13:13;;;;;;;;;;;;;;;;;;2099210;28;1168;-86
2021/09/17 05:14:17;;;;;;;;;;;;;;;;;;2116535;28;1498;-87
2021/09/17 05:15:20;;;;;;;;;;;;;;;;;;2107348;28;1901;-86
2021/09/17 05:16:22;;;;;;;;;;;;;;;;;;2091867;28;1333;-87
2021/09/17 05:17:23;;;;;;;;;;;;;;;;;;2091828;28;1190;-87
2021/09/17 05:18:28;;;;;;;;;;;;;;;;;;2091762;28;1369;-86
2021/09/17 05:19:29;;;;;;;;;;;;;;;;;;2088423;28;2063;-86
2021/09/17 05:20:31;;;;;;;;;;;;;;;;;;2082648;28;2035;-85
2021/09/17 05:21:32;;;;;;;;;;;;;;;;;;2091162;28;1410;-86
2021/09/17 05:22:34;;;;;;;;;;;;;;;;;;2099853;28;1226;-86
2021/09/17 05:23:38;;;;;;;;;;;;;;;;;;2107367;28;1336;-86
2021/09/17 05:24:41;;;;;;;;;;;;;;;;;;2091161;28;1298;-86
2021/09/17 05:25:44;;;;;;;;;;;;;;;;;;2099248;28;2041;-86
2021/09/17 05:26:48;;;;;;;;;;;;;;;;;;2100032;28;882;-86
2021/09/17 05:27:50;;;;;;;;;;;;;;;;;;2107837;28;1246;-86
2021/09/17 05:28:51;;;;;;;;;;;;;;;;;;2107882;28;1434;-86
2021/09/17 05:29:54;;;;;;;;;;;;;;;;;;2113808;28;2056;-86
2021/09/17 05:30:56;;;;;;;;;;;;;;;;;;2116348;28;1369;-86
2021/09/17 05:32:00;;;;;;;;;;;;;;;;;;2107608;28;1981;-87
2021/09/17 05:33:02;;;;;;;;;;;;;;;;;;2091610;28;1434;-87
2021/09/17 05:34:03;;;;;;;;;;;;;;;;;;2090903;28;1331;-86
2021/09/17 05:35:06;;;;;;;;;;;;;;;;;;2090597;28;1825;-86
2021/09/17 05:36:07;;;;;;;;;;;;;;;;;;2091286;28;1247;-86
2021/09/17 05:37:08;;;;;;;;;;;;;;;;;;2099397;28;1375;-86
2021/09/17 05:38:10;;;;;;;;;;;;;;;;;;2108096;28;1242;-86
2021/09/17 05:39:11;;;;;;;;;;;;;;;;;;2117165;28;1203;-86
2021/09/17 05:40:13;;;;;;;;;;;;;;;;;;2107698;28;1271;-85
2021/09/17 05:41:15;;;;;;;;;;;;;;;;;;2091823;28;1195;-85
2021/09/17 05:42:16;;;;;;;;;;;;;;;;;;2099102;28;1267;-85
2021/09/17 05:43:17;;;;;;;;;;;;;;;;;;2116471;28;1448;-85
2021/09/17 05:44:19;;;;;;;;;;;;;;;;;;2114028;28;2098;-85
2021/09/17 05:45:22;;;;;;;;;;;;;;;;;;2099941;28;899;-85
2021/09/17 05:46:23;;;;;;;;;;;;;;;;;;2099105;28;1240;-85
2021/09/17 05:47:24;;;;;;;;;;;;;;;;;;2090818;28;1367;-86
2021/09/17 05:48:26;;;;;;;;;;;;;;;;;;2090995;28;1451;-85
2021/09/17 05:49:27;;;;;;;;;;;;;;;;;;2098902;28;1892;-85
2021/09/17 05:50:28;;;;;;;;;;;;;;;;;;2099193;28;1262;-85
2021/09/17 05:51:30;;;;;;;;;;;;;;;;;;2093508;28;1917;-85
2021/09/17 05:52:33;;;;;;;;;;;;;;;;;;2091147;28;1373;-85
2021/09/17 05:53:33;;;;;;;;;;;;;;;;;;2098678;28;1657;-84
2021/09/17 05:54:37;;;;;;;;;;;;;;;;;;2107692;28;1344;-85
2021/09/17 05:55:38;;;;;;;;;;;;;;;;;;2102771;28;1996;-84
2021/09/17 05:56:39;;;;;;;;;;;;;;;;;;2099817;28;1371;-84
2021/09/17 05:57:41;;;;;;;;;;;;;;;;;;2107622;28;1270;-85
2021/09/17 05:58:42;;;;;;;;;;;;;;;;;;2107801;28;1390;-85
2021/09/17 05:59:44;;;;;;;;;;;;;;;;;;2105924;28;1398;-87
2021/09/17 06:00:48;;;;;;;;;;;;;;;;;;2100428;28;2071;-87
2021/09/17 06:01:53;;;;;;;;;;;;;;;;;;2100072;28;802;-87
2021/09/17 06:02:55;;;;;;;;;;;;;;;;;;2099717;28;1301;-87
2021/09/17 06:03:56;;;;;;;;;;;;;;;;;;2099519;28;1341;-87
2021/09/17 06:04:58;;;;;;;;;;;;;;;;;;2091118;28;2094;-86
2021/09/17 06:06:00;;;;;;;;;;;;;;;;;;2099087;28;1334;-87
2021/09/17 06:07:02;;;;;;;;;;;;;;;;;;2108077;28;1358;-86
2021/09/17 06:08:03;;;;;;;;;;;;;;;;;;2091443;28;1727;-86
2021/09/17 06:09:05;;;;;;;;;;;;;;;;;;2091524;28;1324;-86
2021/09/17 06:10:06;;;;;;;;;;;;;;;;;;2090897;28;1208;-87
2021/09/17 06:11:08;;;;;;;;;;;;;;;;;;2090567;28;1266;-86
2021/09/17 06:12:10;;;;;;;;;;;;;;;;;;2099791;28;1906;-87
2021/09/17 06:13:13;;;;;;;;;;;;;;;;;;2108072;28;1377;-87
2021/09/17 06:14:14;;;;;;;;;;;;;;;;;;2091115;28;1334;-87
2021/09/17 06:15:17;;;;;;;;;;;;;;;;;;2103202;28;1478;-88
2021/09/17 06:16:19;;;;;;;;;;;;;;;;;;2107428;28;1218;-88
2021/09/17 06:17:24;;;;;;;;;;;;;;;;;;2099401;28;1813;-87
2021/09/17 06:18:24;;;;;;;;;;;;;;;;;;2100105;28;1539;-88
2021/09/17 06:19:27;;;;;;;;;;;;;;;;;;2099300;28;1365;-85
2021/09/17 06:20:28;;;;;;;;;;;;;;;;;;2099405;28;1742;-85
2021/09/17 06:21:32;;;;;;;;;;;;;;;;;;2116114;28;1246;-85
2021/09/17 06:22:34;;;;;;;;;;;;;;;;;;2107347;28;1353;-84
2021/09/17 06:23:35;;;;;;;;;;;;;;;;;;2090833;28;1522;-85
2021/09/17 06:24:37;;;;;;;;;;;;;;;;;;2107719;28;1333;-85
2021/09/17 06:25:39;;;;;;;;;;;;;;;;;;2107593;28;1405;-86
2021/09/17 06:26:39;;;;;;;;;;;;;;;;;;2099220;28;1326;-86
2021/09/17 06:27:42;;;;;;;;;;;;;;;;;;2102878;28;1510;-86
2021/09/17 06:28:43;;;;;;;;;;;;;;;;;;2108991;28;1677;-87
2021/09/17 06:29:45;;;;;;;;;;;;;;;;;;2100868;28;1507;-87
2021/09/17 06:30:46;;;;;;;;;;;;;;;;;;2089005;28;1326;-86
2021/09/17 06:31:52;;;;;;;;;;;;;;;;;;2096077;28;1902;-85
2021/09/17 06:32:52;;;;;;;;;;;;;;;;;;2101140;28;1421;-84
2021/09/17 06:33:57;;;;;;;;;;;;;;;;;;2100366;28;1211;-85
2021/09/17 06:34:59;;;;;;;;;;;;;;;;;;2092384;28;1803;-84
2021/09/17 06:36:01;;;;;;;;;;;;;;;;;;2084534;28;1359;-84
2021/09/17 06:37:04;;;;;;;;;;;;;;;;;;2093218;28;1739;-86
2021/09/17 06:38:06;;;;;;;;;;;;;;;;;;2100908;28;1746;-84
2021/09/17 06:39:10;;;;;;;;;;;;;;;;;;2100787;28;1770;-85
2021/09/17 06:40:14;;;;;;;;;;;;;;;;;;2084824;28;1864;-85
2021/09/17 06:41:16;;;;;;;;;;;;;;;;;;2084173;28;1337;-85
2021/09/17 06:42:17;;;;;;;;;;;;;;;;;;2076115;28;1396;-85
2021/09/17 06:43:22;;;;;;;;;;;;;;;;;;2084462;28;1383;-85
2021/09/17 06:44:23;;;;;;;;;;;;;;;;;;2091023;28;1323;-85
2021/09/17 06:45:25;;;;;;;;;;;;;;;;;;2091839;28;1378;-84
2021/09/17 06:46:28;;;;;;;;;;;;;;;;;;2100787;28;1378;-86
2021/09/17 06:47:31;;;;;;;;;;;;;;;;;;2093058;28;1325;-86
2021/09/17 06:48:33;;;;;;;;;;;;;;;;;;2093172;28;1318;-84
2021/09/17 06:49:34;;;;;;;;;;;;;;;;;;2092708;28;1365;-85
2021/09/17 06:50:35;;;;;;;;;;;;;;;;;;2091247;28;1514;-87
2021/09/17 06:51:36;;;;;;;;;;;;;;;;;;2092265;28;1334;-86
2021/09/17 06:52:39;;;;;;;;;;;;;;;;;;2095748;28;1985;-84
2021/09/17 06:53:42;;;;;;;;;;;;;;;;;;2092527;28;1452;-85
2021/09/17 06:54:43;;;;;;;;;;;;;;;;;;2092744;28;1486;-85
2021/09/17 06:55:47;;;;;;;;;;;;;;;;;;2107444;28;1853;-84
2021/09/17 06:56:49;;;;;;;;;;;;;;;;;;2117534;28;1294;-85
2021/09/17 06:57:51;;;;;;;;;;;;;;;;;;2108678;28;1234;-86
2021/09/17 06:58:53;;;;;;;;;;;;;;;;;;2108970;28;1362;-84
2021/09/17 07:00:00;;;;;;;;;;;;;;;;;;2108411;28;1426;-85
2021/09/17 07:01:02;;;;;;;;;;;;;;;;;;2092699;28;1430;-84
2021/09/17 07:02:05;;;;;;;;;;;;;;;;;;2084309;28;1480;-86
2021/09/17 07:03:08;;;;;;;;;;;;;;;;;;2100938;28;1457;-86
2021/09/17 07:04:09;;;;;;;;;;;;;;;;;;2108923;28;1182;-84
2021/09/17 07:05:13;;;;;;;;;;;;;;;;;;2117602;28;2003;-85
2021/09/17 07:06:16;;;;;;;;;;;;;;;;;;2108691;28;1300;-86
2021/09/17 07:07:17;;;;;;;;;;;;;;;;;;2100716;28;1425;-86
2021/09/17 07:08:19;;;;;;;;;;;;;;;;;;2103369;28;1848;-85
2021/09/17 07:09:21;;;;;;;;;;;;;;;;;;2108793;28;1657;-85
2021/09/17 07:10:25;;;;;;;;;;;;;;;;;;2108726;28;1426;-85
2021/09/17 07:11:28;;;;;;;;;;;;;;;;;;2108485;28;1357;-85
2021/09/17 07:12:29;;;;;;;;;;;;;;;;;;2109142;28;1984;-87
2021/09/17 07:13:31;;;;;;;;;;;;;;;;;;2109135;28;1226;-86